sensor_id;sensor_type;location;lat;lon;timestamp;pressure;altitude;pressure_sealevel;temperature;humidity
64862;BME280;62652;42.274;-71.436;2023-07-09T00:00:00;100390.0;;;28.5;100.0
64862;BME280;62652;42.274;-71.436;2023-07-09T00:01:00;100390.0;;;28.5;100.0
64862;BME280;62652;42.274;-71.436;2023-07-09T00:02:01;100390.0;;;28.5;100.0
64862;BME280;62652;42.274;-71.436;2023-07-09T00:03:00;100390.0;;;28.5;100.0
64862;BME280;62652;42.274;-71.436;2023-07-09T00:04:01;100390.0;;;28.5;100.0
64862;BME280;62652;42.274;-71.436;2023-07-09T00:05:00;100390.0;;;28.5;100.0
64862;BME280;62652;42.274;-71.436;2023-07-09T00:06:01;100390.0;;;28.5;100.0
64862;BME280;62652;42.274;-71.436;2023-07-09T00:07:02;100400.0;;;28.388888888888886;100.0
64862;BME280;62652;42.274;-71.436;2023-07-09T00:08:01;100390.0;;;28.388888888888886;100.0
64862;BME280;62652;42.274;-71.436;2023-07-09T00:09:00;100390.0;;;28.277777777777782;100.0
64862;BME280;62652;42.274;-71.436;2023-07-09T00:10:01;100390.0;;;28.277777777777782;100.0
64862;BME280;62652;42.274;-71.436;2023-07-09T00:11:01;100390.0;;;28.277777777777782;100.0
64862;BME280;62652;42.274;-71.436;2023-07-09T00:12:00;100390.0;;;28.277777777777782;100.0
64862;BME280;62652;42.274;-71.436;2023-07-09T00:13:00;100390.0;;;28.22222222222222;100.0
64862;BME280;62652;42.274;-71.436;2023-07-09T00:14:00;100380.0;;;28.22222222222222;100.0
64862;BME280;62652;42.274;-71.436;2023-07-09T00:15:01;100380.0;;;28.22222222222222;100.0
64862;BME280;62652;42.274;-71.436;2023-07-09T00:16:07;100380.0;;;28.22222222222222;100.0
64862;BME280;62652;42.274;-71.436;2023-07-09T00:17:02;100380.0;;;28.111111111111107;100.0
64862;BME280;62652;42.274;-71.436;2023-07-09T00:18:00;100380.0;;;28.111111111111107;100.0
64862;BME280;62652;42.274;-71.436;2023-07-09T00:19:00;100380.0;;;28.111111111111107;100.0
64862;BME280;62652;42.274;-71.436;2023-07-09T00:20:01;100370.0;;;28.111111111111107;100.0
64862;BME280;62652;42.274;-71.436;2023-07-09T00:21:00;100380.0;;;28.000000000000004;100.0
64862;BME280;62652;42.274;-71.436;2023-07-09T00:22:00;100370.0;;;28.000000000000004;100.0
64862;BME280;62652;42.274;-71.436;2023-07-09T00:23:01;100370.0;;;28.000000000000004;100.0
64862;BME280;62652;42.274;-71.436;2023-07-09T00:24:01;100370.0;;;28.000000000000004;100.0
64862;BME280;62652;42.274;-71.436;2023-07-09T00:25:00;100360.0;;;27.88888888888889;100.0
64862;BME280;62652;42.274;-71.436;2023-07-09T00:26:00;100370.0;;;27.88888888888889;100.0
64862;BME280;62652;42.274;-71.436;2023-07-09T00:27:00;100360.0;;;27.88888888888889;100.0
64862;BME280;62652;42.274;-71.436;2023-07-09T00:28:01;100370.0;;;27.88888888888889;100.0
64862;BME280;62652;42.274;-71.436;2023-07-09T00:29:00;100370.0;;;27.88888888888889;100.0
64862;BME280;62652;42.274;-71.436;2023-07-09T00:30:00;100370.0;;;27.77777777777778;100.0
64862;BME280;62652;42.274;-71.436;2023-07-09T00:31:00;100360.0;;;27.722222222222225;100.0
64862;BME280;62652;42.274;-71.436;2023-07-09T00:32:00;100360.0;;;27.722222222222225;100.0
64862;BME280;62652;42.274;-71.436;2023-07-09T00:33:00;100360.0;;;27.61111111111111;100.0
64862;BME280;62652;42.274;-71.436;2023-07-09T00:34:00;100350.0;;;27.61111111111111;100.0
64862;BME280;62652;42.274;-71.436;2023-07-09T00:35:01;100350.0;;;27.61111111111111;100.0
64862;BME280;62652;42.274;-71.436;2023-07-09T00:36:01;100350.0;;;27.61111111111111;100.0
64862;BME280;62652;42.274;-71.436;2023-07-09T00:37:01;100350.0;;;27.61111111111111;100.0
64862;BME280;62652;42.274;-71.436;2023-07-09T00:38:01;100350.0;;;27.61111111111111;100.0
64862;BME280;62652;42.274;-71.436;2023-07-09T00:39:01;100350.0;;;27.5;100.0
64862;BME280;62652;42.274;-71.436;2023-07-09T00:40:00;100350.0;;;27.5;100.0
64862;BME280;62652;42.274;-71.436;2023-07-09T00:41:03;100350.0;;;27.38888888888889;100.0
64862;BME280;62652;42.274;-71.436;2023-07-09T00:42:00;100350.0;;;27.277777777777775;100.0
64862;BME280;62652;42.274;-71.436;2023-07-09T00:43:00;100360.0;;;27.277777777777775;100.0
64862;BME280;62652;42.274;-71.436;2023-07-09T00:44:19;100350.0;;;27.277777777777775;100.0
64862;BME280;62652;42.274;-71.436;2023-07-09T00:45:01;100350.0;;;27.277777777777775;100.0
64862;BME280;62652;42.274;-71.436;2023-07-09T00:46:15;100350.0;;;27.277777777777775;100.0
64862;BME280;62652;42.274;-71.436;2023-07-09T00:47:14;100340.0;;;27.22222222222222;100.0
64862;BME280;62652;42.274;-71.436;2023-07-09T00:48:03;100340.0;;;27.22222222222222;100.0
64862;BME280;62652;42.274;-71.436;2023-07-09T00:49:03;100330.0;;;27.22222222222222;100.0
64862;BME280;62652;42.274;-71.436;2023-07-09T00:50:06;100330.0;;;27.11111111111111;100.0
64862;BME280;62652;42.274;-71.436;2023-07-09T00:51:01;100330.0;;;27.11111111111111;100.0
64862;BME280;62652;42.274;-71.436;2023-07-09T00:52:02;100330.0;;;27.11111111111111;100.0
64862;BME280;62652;42.274;-71.436;2023-07-09T00:53:04;100330.0;;;26.999999999999996;100.0
64862;BME280;62652;42.274;-71.436;2023-07-09T00:54:10;100320.0;;;26.888888888888893;100.0
64862;BME280;62652;42.274;-71.436;2023-07-09T00:55:06;100320.0;;;26.888888888888893;100.0
64862;BME280;62652;42.274;-71.436;2023-07-09T00:56:04;100320.0;;;26.888888888888893;100.0
64862;BME280;62652;42.274;-71.436;2023-07-09T00:57:04;100320.0;;;26.888888888888893;100.0
64862;BME280;62652;42.274;-71.436;2023-07-09T00:58:05;100320.0;;;26.888888888888893;100.0
64862;BME280;62652;42.274;-71.436;2023-07-09T00:59:04;100330.0;;;26.888888888888893;100.0
64862;BME280;62652;42.274;-71.436;2023-07-09T01:00:05;100320.0;;;26.888888888888893;100.0
64862;BME280;62652;42.274;-71.436;2023-07-09T01:01:04;100320.0;;;26.77777777777778;100.0
64862;BME280;62652;42.274;-71.436;2023-07-09T01:02:01;100330.0;;;26.722222222222218;100.0
64862;BME280;62652;42.274;-71.436;2023-07-09T01:03:01;100320.0;;;26.77777777777778;100.0
64862;BME280;62652;42.274;-71.436;2023-07-09T01:04:02;100330.0;;;26.77777777777778;100.0
64862;BME280;62652;42.274;-71.436;2023-07-09T01:05:01;100330.0;;;26.722222222222218;100.0
64862;BME280;62652;42.274;-71.436;2023-07-09T01:06:01;100330.0;;;26.611111111111114;100.0
64862;BME280;62652;42.274;-71.436;2023-07-09T01:07:01;100320.0;;;26.611111111111114;100.0
64862;BME280;62652;42.274;-71.436;2023-07-09T01:08:01;100320.0;;;26.611111111111114;100.0
64862;BME280;62652;42.274;-71.436;2023-07-09T01:09:02;100320.0;;;26.611111111111114;100.0
64862;BME280;62652;42.274;-71.436;2023-07-09T01:10:01;100330.0;;;26.611111111111114;100.0
64862;BME280;62652;42.274;-71.436;2023-07-09T01:11:01;100330.0;;;26.611111111111114;100.0
64862;BME280;62652;42.274;-71.436;2023-07-09T01:12:02;100330.0;;;26.611111111111114;100.0
64862;BME280;62652;42.274;-71.436;2023-07-09T01:13:01;100330.0;;;26.5;100.0
64862;BME280;62652;42.274;-71.436;2023-07-09T01:14:03;100340.0;;;26.5;100.0
64862;BME280;62652;42.274;-71.436;2023-07-09T01:15:00;100340.0;;;26.5;100.0
64862;BME280;62652;42.274;-71.436;2023-07-09T01:16:00;100340.0;;;26.5;100.0
64862;BME280;62652;42.274;-71.436;2023-07-09T01:17:02;100340.0;;;26.611111111111114;100.0
64862;BME280;62652;42.274;-71.436;2023-07-09T01:18:01;100340.0;;;26.5;100.0
64862;BME280;62652;42.274;-71.436;2023-07-09T01:19:00;100350.0;;;26.5;100.0
64862;BME280;62652;42.274;-71.436;2023-07-09T01:20:01;100350.0;;;26.5;100.0
64862;BME280;62652;42.274;-71.436;2023-07-09T01:21:02;100350.0;;;26.5;100.0
64862;BME280;62652;42.274;-71.436;2023-07-09T01:22:01;100360.0;;;26.5;100.0
64862;BME280;62652;42.274;-71.436;2023-07-09T01:23:00;100360.0;;;26.5;100.0
64862;BME280;62652;42.274;-71.436;2023-07-09T01:24:12;100370.0;;;26.5;100.0
64862;BME280;62652;42.274;-71.436;2023-07-09T01:25:04;100380.0;;;26.5;100.0
64862;BME280;62652;42.274;-71.436;2023-07-09T01:26:00;100380.0;;;26.5;100.0
64862;BME280;62652;42.274;-71.436;2023-07-09T01:27:00;100390.0;;;26.5;100.0
64862;BME280;62652;42.274;-71.436;2023-07-09T01:28:01;100390.0;;;26.611111111111114;100.0
64862;BME280;62652;42.274;-71.436;2023-07-09T01:29:00;100400.0;;;26.611111111111114;100.0
64862;BME280;62652;42.274;-71.436;2023-07-09T01:30:02;100410.0;;;26.611111111111114;100.0
64862;BME280;62652;42.274;-71.436;2023-07-09T01:31:00;100400.0;;;26.611111111111114;100.0
64862;BME280;62652;42.274;-71.436;2023-07-09T01:32:00;100410.0;;;26.722222222222218;100.0
64862;BME280;62652;42.274;-71.436;2023-07-09T01:33:01;100410.0;;;26.722222222222218;100.0
64862;BME280;62652;42.274;-71.436;2023-07-09T01:34:01;100410.0;;;26.722222222222218;100.0
64862;BME280;62652;42.274;-71.436;2023-07-09T01:35:03;100410.0;;;26.722222222222218;100.0
64862;BME280;62652;42.274;-71.436;2023-07-09T01:36:01;100410.0;;;26.722222222222218;100.0
64862;BME280;62652;42.274;-71.436;2023-07-09T01:37:00;100420.0;;;26.722222222222218;100.0
64862;BME280;62652;42.274;-71.436;2023-07-09T01:38:01;100420.0;;;26.722222222222218;100.0
64862;BME280;62652;42.274;-71.436;2023-07-09T01:39:01;100420.0;;;26.722222222222218;100.0
64862;BME280;62652;42.274;-71.436;2023-07-09T01:40:02;100430.0;;;26.722222222222218;100.0
64862;BME280;62652;42.274;-71.436;2023-07-09T01:41:01;100430.0;;;26.611111111111114;100.0
64862;BME280;62652;42.274;-71.436;2023-07-09T01:42:00;100430.0;;;26.611111111111114;100.0
64862;BME280;62652;42.274;-71.436;2023-07-09T01:43:01;100430.0;;;26.611111111111114;100.0
64862;BME280;62652;42.274;-71.436;2023-07-09T01:44:00;100430.0;;;26.611111111111114;100.0
64862;BME280;62652;42.274;-71.436;2023-07-09T01:45:01;100430.0;;;26.611111111111114;100.0
64862;BME280;62652;42.274;-71.436;2023-07-09T01:46:01;100430.0;;;26.611111111111114;100.0
64862;BME280;62652;42.274;-71.436;2023-07-09T01:47:00;100430.0;;;26.611111111111114;100.0
64862;BME280;62652;42.274;-71.436;2023-07-09T01:48:01;100430.0;;;26.611111111111114;100.0
64862;BME280;62652;42.274;-71.436;2023-07-09T01:49:00;100430.0;;;26.611111111111114;100.0
64862;BME280;62652;42.274;-71.436;2023-07-09T01:50:00;100420.0;;;26.611111111111114;100.0
64862;BME280;62652;42.274;-71.436;2023-07-09T01:51:01;100420.0;;;26.611111111111114;100.0
64862;BME280;62652;42.274;-71.436;2023-07-09T01:52:01;100420.0;;;26.611111111111114;100.0
64862;BME280;62652;42.274;-71.436;2023-07-09T01:53:01;100420.0;;;26.611111111111114;100.0
64862;BME280;62652;42.274;-71.436;2023-07-09T01:54:01;100410.0;;;26.611111111111114;100.0
64862;BME280;62652;42.274;-71.436;2023-07-09T01:55:01;100410.0;;;26.611111111111114;100.0
64862;BME280;62652;42.274;-71.436;2023-07-09T01:56:01;100420.0;;;26.611111111111114;100.0
64862;BME280;62652;42.274;-71.436;2023-07-09T01:57:13;100420.0;;;26.611111111111114;100.0
64862;BME280;62652;42.274;-71.436;2023-07-09T01:58:01;100420.0;;;26.611111111111114;100.0
64862;BME280;62652;42.274;-71.436;2023-07-09T01:59:01;100420.0;;;26.611111111111114;100.0
64862;BME280;62652;42.274;-71.436;2023-07-09T02:00:04;100420.0;;;26.611111111111114;100.0
64862;BME280;62652;42.274;-71.436;2023-07-09T02:01:01;100420.0;;;26.611111111111114;100.0
64862;BME280;62652;42.274;-71.436;2023-07-09T02:02:00;100420.0;;;26.611111111111114;100.0
64862;BME280;62652;42.274;-71.436;2023-07-09T02:03:01;100430.0;;;26.611111111111114;100.0
64862;BME280;62652;42.274;-71.436;2023-07-09T02:04:01;100430.0;;;26.722222222222218;100.0
64862;BME280;62652;42.274;-71.436;2023-07-09T02:05:00;100430.0;;;26.722222222222218;100.0
64862;BME280;62652;42.274;-71.436;2023-07-09T02:06:01;100430.0;;;26.722222222222218;100.0
64862;BME280;62652;42.274;-71.436;2023-07-09T02:07:01;100420.0;;;26.722222222222218;100.0
64862;BME280;62652;42.274;-71.436;2023-07-09T02:08:00;100420.0;;;26.722222222222218;100.0
64862;BME280;62652;42.274;-71.436;2023-07-09T02:09:00;100420.0;;;26.722222222222218;100.0
64862;BME280;62652;42.274;-71.436;2023-07-09T02:10:01;100410.0;;;26.611111111111114;100.0
64862;BME280;62652;42.274;-71.436;2023-07-09T02:11:00;100410.0;;;26.611111111111114;100.0
64862;BME280;62652;42.274;-71.436;2023-07-09T02:12:00;100410.0;;;26.611111111111114;100.0
64862;BME280;62652;42.274;-71.436;2023-07-09T02:13:01;100410.0;;;26.611111111111114;100.0
64862;BME280;62652;42.274;-71.436;2023-07-09T02:14:01;100410.0;;;26.5;100.0
64862;BME280;62652;42.274;-71.436;2023-07-09T02:15:01;100400.0;;;26.5;100.0
64862;BME280;62652;42.274;-71.436;2023-07-09T02:16:00;100400.0;;;26.5;100.0
64862;BME280;62652;42.274;-71.436;2023-07-09T02:17:00;100390.0;;;26.38888888888889;100.0
64862;BME280;62652;42.274;-71.436;2023-07-09T02:18:01;100390.0;;;26.38888888888889;100.0
64862;BME280;62652;42.274;-71.436;2023-07-09T02:19:01;100390.0;;;26.38888888888889;100.0
64862;BME280;62652;42.274;-71.436;2023-07-09T02:20:00;100380.0;;;26.38888888888889;100.0
64862;BME280;62652;42.274;-71.436;2023-07-09T02:21:01;100380.0;;;26.27777777777778;100.0
64862;BME280;62652;42.274;-71.436;2023-07-09T02:22:01;100380.0;;;26.27777777777778;100.0
64862;BME280;62652;42.274;-71.436;2023-07-09T02:23:01;100380.0;;;26.27777777777778;100.0
64862;BME280;62652;42.274;-71.436;2023-07-09T02:24:01;100380.0;;;26.27777777777778;100.0
64862;BME280;62652;42.274;-71.436;2023-07-09T02:25:01;100380.0;;;26.27777777777778;100.0
64862;BME280;62652;42.274;-71.436;2023-07-09T02:26:01;100380.0;;;26.27777777777778;100.0
64862;BME280;62652;42.274;-71.436;2023-07-09T02:27:02;100380.0;;;26.22222222222222;100.0
64862;BME280;62652;42.274;-71.436;2023-07-09T02:28:00;100380.0;;;26.22222222222222;100.0
64862;BME280;62652;42.274;-71.436;2023-07-09T02:29:00;100390.0;;;26.22222222222222;100.0
64862;BME280;62652;42.274;-71.436;2023-07-09T02:30:01;100390.0;;;26.22222222222222;100.0
64862;BME280;62652;42.274;-71.436;2023-07-09T02:31:00;100390.0;;;26.11111111111111;100.0
64862;BME280;62652;42.274;-71.436;2023-07-09T02:32:01;100400.0;;;26.0;100.0
64862;BME280;62652;42.274;-71.436;2023-07-09T02:33:01;100400.0;;;26.0;100.0
64862;BME280;62652;42.274;-71.436;2023-07-09T02:34:00;100400.0;;;26.0;100.0
64862;BME280;62652;42.274;-71.436;2023-07-09T02:35:01;100400.0;;;26.0;100.0
64862;BME280;62652;42.274;-71.436;2023-07-09T02:36:01;100400.0;;;25.888888888888886;100.0
64862;BME280;62652;42.274;-71.436;2023-07-09T02:37:01;100400.0;;;25.888888888888886;100.0
64862;BME280;62652;42.274;-71.436;2023-07-09T02:38:00;100400.0;;;25.888888888888886;100.0
64862;BME280;62652;42.274;-71.436;2023-07-09T02:39:00;100390.0;;;25.777777777777782;100.0
64862;BME280;62652;42.274;-71.436;2023-07-09T02:40:01;100390.0;;;25.777777777777782;100.0
64862;BME280;62652;42.274;-71.436;2023-07-09T02:41:00;100390.0;;;25.72222222222222;100.0
64862;BME280;62652;42.274;-71.436;2023-07-09T02:42:01;100390.0;;;25.72222222222222;100.0
64862;BME280;62652;42.274;-71.436;2023-07-09T02:43:01;100400.0;;;25.72222222222222;100.0
64862;BME280;62652;42.274;-71.436;2023-07-09T02:44:00;100400.0;;;25.611111111111107;100.0
64862;BME280;62652;42.274;-71.436;2023-07-09T02:45:01;100410.0;;;25.611111111111107;100.0
64862;BME280;62652;42.274;-71.436;2023-07-09T02:46:01;100410.0;;;25.611111111111107;100.0
64862;BME280;62652;42.274;-71.436;2023-07-09T02:47:00;100410.0;;;25.611111111111107;100.0
64862;BME280;62652;42.274;-71.436;2023-07-09T02:48:00;100410.0;;;25.500000000000004;100.0
64862;BME280;62652;42.274;-71.436;2023-07-09T02:49:02;100410.0;;;25.500000000000004;100.0
64862;BME280;62652;42.274;-71.436;2023-07-09T02:50:01;100410.0;;;25.500000000000004;100.0
64862;BME280;62652;42.274;-71.436;2023-07-09T02:51:01;100410.0;;;25.500000000000004;100.0
64862;BME280;62652;42.274;-71.436;2023-07-09T02:52:01;100410.0;;;25.38888888888889;100.0
64862;BME280;62652;42.274;-71.436;2023-07-09T02:53:00;100400.0;;;25.38888888888889;100.0
64862;BME280;62652;42.274;-71.436;2023-07-09T02:54:02;100410.0;;;25.38888888888889;100.0
64862;BME280;62652;42.274;-71.436;2023-07-09T02:55:00;100410.0;;;25.38888888888889;100.0
64862;BME280;62652;42.274;-71.436;2023-07-09T02:56:00;100410.0;;;25.38888888888889;100.0
64862;BME280;62652;42.274;-71.436;2023-07-09T02:57:01;100410.0;;;25.27777777777778;100.0
64862;BME280;62652;42.274;-71.436;2023-07-09T02:58:01;100410.0;;;25.27777777777778;100.0
64862;BME280;62652;42.274;-71.436;2023-07-09T02:59:01;100400.0;;;25.27777777777778;100.0
64862;BME280;62652;42.274;-71.436;2023-07-09T03:00:01;100410.0;;;25.27777777777778;100.0
64862;BME280;62652;42.274;-71.436;2023-07-09T03:01:00;100410.0;;;25.222222222222225;100.0
64862;BME280;62652;42.274;-71.436;2023-07-09T03:02:01;100400.0;;;25.222222222222225;100.0
64862;BME280;62652;42.274;-71.436;2023-07-09T03:03:00;100400.0;;;25.11111111111111;100.0
64862;BME280;62652;42.274;-71.436;2023-07-09T03:04:01;100400.0;;;25.11111111111111;100.0
64862;BME280;62652;42.274;-71.436;2023-07-09T03:05:01;100400.0;;;25.11111111111111;100.0
64862;BME280;62652;42.274;-71.436;2023-07-09T03:06:01;100400.0;;;25.11111111111111;100.0
64862;BME280;62652;42.274;-71.436;2023-07-09T03:07:00;100400.0;;;25.11111111111111;100.0
64862;BME280;62652;42.274;-71.436;2023-07-09T03:08:00;100410.0;;;25.11111111111111;100.0
64862;BME280;62652;42.274;-71.436;2023-07-09T03:09:01;100400.0;;;25.11111111111111;100.0
64862;BME280;62652;42.274;-71.436;2023-07-09T03:10:01;100410.0;;;25.11111111111111;100.0
64862;BME280;62652;42.274;-71.436;2023-07-09T03:11:09;100410.0;;;25.11111111111111;100.0
64862;BME280;62652;42.274;-71.436;2023-07-09T03:12:01;100410.0;;;25.11111111111111;100.0
64862;BME280;62652;42.274;-71.436;2023-07-09T03:13:01;100410.0;;;25.0;100.0
64862;BME280;62652;42.274;-71.436;2023-07-09T03:14:02;100410.0;;;25.0;100.0
64862;BME280;62652;42.274;-71.436;2023-07-09T03:15:00;100410.0;;;25.0;100.0
64862;BME280;62652;42.274;-71.436;2023-07-09T03:16:00;100410.0;;;24.88888888888889;100.0
64862;BME280;62652;42.274;-71.436;2023-07-09T03:17:00;100410.0;;;25.0;100.0
64862;BME280;62652;42.274;-71.436;2023-07-09T03:18:00;100410.0;;;24.88888888888889;100.0
64862;BME280;62652;42.274;-71.436;2023-07-09T03:19:01;100420.0;;;25.0;100.0
64862;BME280;62652;42.274;-71.436;2023-07-09T03:20:00;100420.0;;;25.0;100.0
64862;BME280;62652;42.274;-71.436;2023-07-09T03:21:00;100420.0;;;25.0;100.0
64862;BME280;62652;42.274;-71.436;2023-07-09T03:22:01;100420.0;;;25.0;100.0
64862;BME280;62652;42.274;-71.436;2023-07-09T03:23:00;100420.0;;;25.0;100.0
64862;BME280;62652;42.274;-71.436;2023-07-09T03:24:01;100420.0;;;25.0;100.0
64862;BME280;62652;42.274;-71.436;2023-07-09T03:25:00;100410.0;;;25.0;100.0
64862;BME280;62652;42.274;-71.436;2023-07-09T03:26:00;100410.0;;;25.0;100.0
64862;BME280;62652;42.274;-71.436;2023-07-09T03:27:00;100410.0;;;25.0;100.0
64862;BME280;62652;42.274;-71.436;2023-07-09T03:28:00;100410.0;;;24.88888888888889;100.0
64862;BME280;62652;42.274;-71.436;2023-07-09T03:29:00;100400.0;;;25.0;100.0
64862;BME280;62652;42.274;-71.436;2023-07-09T03:30:00;100410.0;;;24.88888888888889;100.0
64862;BME280;62652;42.274;-71.436;2023-07-09T03:31:00;100400.0;;;24.88888888888889;100.0
64862;BME280;62652;42.274;-71.436;2023-07-09T03:32:00;100400.0;;;24.88888888888889;100.0
64862;BME280;62652;42.274;-71.436;2023-07-09T03:33:01;100400.0;;;24.88888888888889;100.0
64862;BME280;62652;42.274;-71.436;2023-07-09T03:34:01;100400.0;;;24.777777777777775;100.0
64862;BME280;62652;42.274;-71.436;2023-07-09T03:35:01;100400.0;;;24.88888888888889;100.0
64862;BME280;62652;42.274;-71.436;2023-07-09T03:36:01;100400.0;;;24.777777777777775;100.0
64862;BME280;62652;42.274;-71.436;2023-07-09T03:37:00;100400.0;;;24.777777777777775;100.0
64862;BME280;62652;42.274;-71.436;2023-07-09T03:38:01;100400.0;;;24.777777777777775;100.0
64862;BME280;62652;42.274;-71.436;2023-07-09T03:39:00;100410.0;;;24.777777777777775;100.0
64862;BME280;62652;42.274;-71.436;2023-07-09T03:40:00;100400.0;;;24.88888888888889;100.0
64862;BME280;62652;42.274;-71.436;2023-07-09T03:41:00;100410.0;;;24.88888888888889;100.0
64862;BME280;62652;42.274;-71.436;2023-07-09T03:42:00;100410.0;;;24.777777777777775;100.0
64862;BME280;62652;42.274;-71.436;2023-07-09T03:43:00;100410.0;;;24.777777777777775;100.0
64862;BME280;62652;42.274;-71.436;2023-07-09T03:44:00;100410.0;;;24.72222222222222;100.0
64862;BME280;62652;42.274;-71.436;2023-07-09T03:45:00;100420.0;;;24.72222222222222;100.0
64862;BME280;62652;42.274;-71.436;2023-07-09T03:46:01;100420.0;;;24.72222222222222;100.0
64862;BME280;62652;42.274;-71.436;2023-07-09T03:47:00;100420.0;;;24.61111111111111;100.0
64862;BME280;62652;42.274;-71.436;2023-07-09T03:48:01;100420.0;;;24.61111111111111;100.0
64862;BME280;62652;42.274;-71.436;2023-07-09T03:49:01;100430.0;;;24.61111111111111;100.0
64862;BME280;62652;42.274;-71.436;2023-07-09T03:50:01;100430.0;;;24.61111111111111;100.0
64862;BME280;62652;42.274;-71.436;2023-07-09T03:51:00;100430.0;;;24.61111111111111;100.0
64862;BME280;62652;42.274;-71.436;2023-07-09T03:52:00;100430.0;;;24.61111111111111;100.0
64862;BME280;62652;42.274;-71.436;2023-07-09T03:53:01;100430.0;;;24.499999999999996;100.0
64862;BME280;62652;42.274;-71.436;2023-07-09T03:54:00;100430.0;;;24.499999999999996;100.0
64862;BME280;62652;42.274;-71.436;2023-07-09T03:55:01;100440.0;;;24.499999999999996;100.0
64862;BME280;62652;42.274;-71.436;2023-07-09T03:56:00;100440.0;;;24.499999999999996;100.0
64862;BME280;62652;42.274;-71.436;2023-07-09T03:57:01;100440.0;;;24.499999999999996;100.0
64862;BME280;62652;42.274;-71.436;2023-07-09T03:58:00;100440.0;;;24.499999999999996;100.0
64862;BME280;62652;42.274;-71.436;2023-07-09T03:59:00;100430.0;;;24.499999999999996;100.0
64862;BME280;62652;42.274;-71.436;2023-07-09T04:00:01;100440.0;;;24.499999999999996;100.0
64862;BME280;62652;42.274;-71.436;2023-07-09T04:01:00;100440.0;;;24.499999999999996;100.0
64862;BME280;62652;42.274;-71.436;2023-07-09T04:02:00;100430.0;;;24.499999999999996;100.0
64862;BME280;62652;42.274;-71.436;2023-07-09T04:03:01;100430.0;;;24.499999999999996;100.0
64862;BME280;62652;42.274;-71.436;2023-07-09T04:04:01;100430.0;;;24.499999999999996;100.0
64862;BME280;62652;42.274;-71.436;2023-07-09T04:05:00;100430.0;;;24.499999999999996;100.0
64862;BME280;62652;42.274;-71.436;2023-07-09T04:06:01;100440.0;;;24.499999999999996;100.0
64862;BME280;62652;42.274;-71.436;2023-07-09T04:07:00;100440.0;;;24.499999999999996;100.0
64862;BME280;62652;42.274;-71.436;2023-07-09T04:08:01;100440.0;;;24.499999999999996;100.0
64862;BME280;62652;42.274;-71.436;2023-07-09T04:09:01;100440.0;;;24.499999999999996;100.0
64862;BME280;62652;42.274;-71.436;2023-07-09T04:10:01;100440.0;;;24.499999999999996;100.0
64862;BME280;62652;42.274;-71.436;2023-07-09T04:11:02;100450.0;;;24.499999999999996;100.0
64862;BME280;62652;42.274;-71.436;2023-07-09T04:12:00;100450.0;;;24.499999999999996;100.0
64862;BME280;62652;42.274;-71.436;2023-07-09T04:13:00;100450.0;;;24.388888888888893;100.0
64862;BME280;62652;42.274;-71.436;2023-07-09T04:14:00;100450.0;;;24.388888888888893;100.0
64862;BME280;62652;42.274;-71.436;2023-07-09T04:15:00;100450.0;;;24.388888888888893;100.0
64862;BME280;62652;42.274;-71.436;2023-07-09T04:16:01;100450.0;;;24.388888888888893;100.0
64862;BME280;62652;42.274;-71.436;2023-07-09T04:17:01;100450.0;;;24.388888888888893;100.0
64862;BME280;62652;42.274;-71.436;2023-07-09T04:18:00;100440.0;;;24.388888888888893;100.0
64862;BME280;62652;42.274;-71.436;2023-07-09T04:19:00;100440.0;;;24.388888888888893;100.0
64862;BME280;62652;42.274;-71.436;2023-07-09T04:20:02;100440.0;;;24.388888888888893;100.0
64862;BME280;62652;42.274;-71.436;2023-07-09T04:21:00;100440.0;;;24.27777777777778;100.0
64862;BME280;62652;42.274;-71.436;2023-07-09T04:22:00;100450.0;;;24.388888888888893;100.0
64862;BME280;62652;42.274;-71.436;2023-07-09T04:23:01;100450.0;;;24.388888888888893;100.0
64862;BME280;62652;42.274;-71.436;2023-07-09T04:24:00;100450.0;;;24.27777777777778;100.0
64862;BME280;62652;42.274;-71.436;2023-07-09T04:25:01;100440.0;;;24.27777777777778;100.0
64862;BME280;62652;42.274;-71.436;2023-07-09T04:26:00;100450.0;;;24.27777777777778;100.0
64862;BME280;62652;42.274;-71.436;2023-07-09T04:27:00;100450.0;;;24.27777777777778;100.0
64862;BME280;62652;42.274;-71.436;2023-07-09T04:28:00;100450.0;;;24.27777777777778;100.0
64862;BME280;62652;42.274;-71.436;2023-07-09T04:29:01;100450.0;;;24.27777777777778;100.0
64862;BME280;62652;42.274;-71.436;2023-07-09T04:30:01;100460.0;;;24.27777777777778;100.0
64862;BME280;62652;42.274;-71.436;2023-07-09T04:31:00;100450.0;;;24.27777777777778;100.0
64862;BME280;62652;42.274;-71.436;2023-07-09T04:32:01;100450.0;;;24.27777777777778;100.0